Stephenson, Michigan
Current Conditions -  °F | °C
As of 3:55 PM on Tuesday 25 Nov 2014 (Local Time) from KMNM Reporting Station
Overcast Overcast  
Wind Chill: 20°   Ceiling: 3100
Heat Index: 27°   Visibility: 10mi
Dew Point: 16°   Wind: 6mph
Humidity: 64%   Direction: 280°W
Pressure: 30.04"   Gusts: NA
Location:  45.42°N, 87.61°W
Report Text: KMNM 252155Z AUTO 28005KT 10SM OVC031 M03/M09 A3004 RMK AO1
Loading
Personal Weather Stations






























Interactive Weather Map New forecast layout! Learn more

10-Day Weather Forecast

Advertisements
Track Severe Weather on mobile